sensor_id;sensor_type;location;lat;lon;timestamp;P1;durP1;ratioP1;P2;durP2;ratioP2
75744;SDS011;64359;51.366;-0.222;2023-05-10T00:00:59;1.00;;;1.00;;
75744;SDS011;64359;51.366;-0.222;2023-05-10T00:02:02;1.30;;;1.20;;
75744;SDS011;64359;51.366;-0.222;2023-05-10T00:03:04;1.40;;;1.30;;
75744;SDS011;64359;51.366;-0.222;2023-05-10T00:04:06;1.20;;;1.10;;
75744;SDS011;64359;51.366;-0.222;2023-05-10T00:05:09;0.90;;;0.90;;
75744;SDS011;64359;51.366;-0.222;2023-05-10T00:06:11;1.20;;;1.10;;
75744;SDS011;64359;51.366;-0.222;2023-05-10T00:07:13;0.90;;;0.90;;
75744;SDS011;64359;51.366;-0.222;2023-05-10T00:08:17;1.00;;;1.00;;
75744;SDS011;64359;51.366;-0.222;2023-05-10T00:09:20;1.50;;;1.40;;
75744;SDS011;64359;51.366;-0.222;2023-05-10T00:10:22;1.40;;;0.90;;
75744;SDS011;64359;51.366;-0.222;2023-05-10T00:11:24;1.50;;;1.20;;
75744;SDS011;64359;51.366;-0.222;2023-05-10T00:12:27;1.30;;;1.20;;
75744;SDS011;64359;51.366;-0.222;2023-05-10T00:13:31;1.10;;;1.00;;
75744;SDS011;64359;51.366;-0.222;2023-05-10T00:14:33;1.10;;;1.00;;
75744;SDS011;64359;51.366;-0.222;2023-05-10T00:15:36;1.20;;;1.10;;
75744;SDS011;64359;51.366;-0.222;2023-05-10T00:16:38;1.50;;;1.40;;
75744;SDS011;64359;51.366;-0.222;2023-05-10T00:17:40;1.20;;;1.10;;
75744;SDS011;64359;51.366;-0.222;2023-05-10T00:18:42;1.20;;;1.10;;
75744;SDS011;64359;51.366;-0.222;2023-05-10T00:19:45;1.20;;;1.00;;
75744;SDS011;64359;51.366;-0.222;2023-05-10T00:20:47;1.30;;;1.20;;
75744;SDS011;64359;51.366;-0.222;2023-05-10T00:21:49;0.90;;;0.90;;
75744;SDS011;64359;51.366;-0.222;2023-05-10T00:22:52;1.60;;;1.00;;
75744;SDS011;64359;51.366;-0.222;2023-05-10T00:23:54;1.30;;;1.20;;
75744;SDS011;64359;51.366;-0.222;2023-05-10T00:24:56;1.10;;;1.10;;
75744;SDS011;64359;51.366;-0.222;2023-05-10T00:25:59;0.90;;;0.90;;
75744;SDS011;64359;51.366;-0.222;2023-05-10T00:27:01;1.00;;;0.90;;
75744;SDS011;64359;51.366;-0.222;2023-05-10T00:28:04;1.00;;;1.00;;
75744;SDS011;64359;51.366;-0.222;2023-05-10T00:29:07;1.30;;;1.20;;
75744;SDS011;64359;51.366;-0.222;2023-05-10T00:30:09;1.40;;;1.10;;
75744;SDS011;64359;51.366;-0.222;2023-05-10T00:31:12;1.00;;;1.00;;
75744;SDS011;64359;51.366;-0.222;2023-05-10T00:32:15;1.10;;;0.80;;
75744;SDS011;64359;51.366;-0.222;2023-05-10T00:33:17;0.80;;;0.80;;
75744;SDS011;64359;51.366;-0.222;2023-05-10T00:34:19;1.10;;;0.80;;
75744;SDS011;64359;51.366;-0.222;2023-05-10T00:35:22;1.70;;;1.10;;
75744;SDS011;64359;51.366;-0.222;2023-05-10T00:36:24;1.30;;;1.30;;
75744;SDS011;64359;51.366;-0.222;2023-05-10T00:37:27;0.90;;;0.90;;
75744;SDS011;64359;51.366;-0.222;2023-05-10T00:38:29;1.60;;;1.00;;
75744;SDS011;64359;51.366;-0.222;2023-05-10T00:39:31;1.10;;;0.90;;
75744;SDS011;64359;51.366;-0.222;2023-05-10T00:40:35;0.80;;;0.80;;
75744;SDS011;64359;51.366;-0.222;2023-05-10T00:41:38;1.30;;;1.20;;
75744;SDS011;64359;51.366;-0.222;2023-05-10T00:42:40;1.20;;;1.10;;
75744;SDS011;64359;51.366;-0.222;2023-05-10T00:43:42;2.70;;;1.20;;
75744;SDS011;64359;51.366;-0.222;2023-05-10T00:44:45;1.30;;;1.20;;
75744;SDS011;64359;51.366;-0.222;2023-05-10T00:45:47;1.10;;;1.10;;
75744;SDS011;64359;51.366;-0.222;2023-05-10T00:46:50;1.30;;;1.20;;
75744;SDS011;64359;51.366;-0.222;2023-05-10T00:47:53;1.50;;;1.40;;
75744;SDS011;64359;51.366;-0.222;2023-05-10T00:48:56;1.00;;;0.90;;
75744;SDS011;64359;51.366;-0.222;2023-05-10T00:49:59;1.10;;;1.10;;
75744;SDS011;64359;51.366;-0.222;2023-05-10T00:51:01;1.30;;;1.20;;
75744;SDS011;64359;51.366;-0.222;2023-05-10T00:52:04;1.70;;;1.10;;
75744;SDS011;64359;51.366;-0.222;2023-05-10T00:53:06;1.30;;;1.20;;
75744;SDS011;64359;51.366;-0.222;2023-05-10T00:54:09;1.10;;;1.10;;
75744;SDS011;64359;51.366;-0.222;2023-05-10T00:55:15;1.10;;;1.10;;
75744;SDS011;64359;51.366;-0.222;2023-05-10T00:56:17;1.40;;;1.30;;
75744;SDS011;64359;51.366;-0.222;2023-05-10T00:57:21;1.30;;;1.20;;
75744;SDS011;64359;51.366;-0.222;2023-05-10T00:58:23;1.20;;;1.10;;
75744;SDS011;64359;51.366;-0.222;2023-05-10T00:59:28;1.70;;;1.30;;
75744;SDS011;64359;51.366;-0.222;2023-05-10T01:00:31;2.00;;;1.20;;
75744;SDS011;64359;51.366;-0.222;2023-05-10T01:01:34;1.60;;;1.10;;
75744;SDS011;64359;51.366;-0.222;2023-05-10T01:02:37;1.10;;;1.00;;
75744;SDS011;64359;51.366;-0.222;2023-05-10T01:03:39;1.50;;;1.20;;
75744;SDS011;64359;51.366;-0.222;2023-05-10T01:04:42;1.40;;;1.30;;
75744;SDS011;64359;51.366;-0.222;2023-05-10T01:05:44;1.20;;;1.10;;
75744;SDS011;64359;51.366;-0.222;2023-05-10T01:06:47;1.20;;;0.90;;
75744;SDS011;64359;51.366;-0.222;2023-05-10T01:07:49;1.40;;;1.30;;
75744;SDS011;64359;51.366;-0.222;2023-05-10T01:08:51;1.20;;;1.10;;
75744;SDS011;64359;51.366;-0.222;2023-05-10T01:09:54;0.90;;;0.90;;
75744;SDS011;64359;51.366;-0.222;2023-05-10T01:10:57;1.00;;;1.00;;
75744;SDS011;64359;51.366;-0.222;2023-05-10T01:11:59;1.50;;;1.30;;
75744;SDS011;64359;51.366;-0.222;2023-05-10T01:13:03;1.00;;;0.90;;
75744;SDS011;64359;51.366;-0.222;2023-05-10T01:14:06;1.40;;;1.10;;
75744;SDS011;64359;51.366;-0.222;2023-05-10T01:15:09;1.20;;;1.20;;
75744;SDS011;64359;51.366;-0.222;2023-05-10T01:16:13;1.40;;;1.30;;
75744;SDS011;64359;51.366;-0.222;2023-05-10T01:17:16;1.10;;;1.10;;
75744;SDS011;64359;51.366;-0.222;2023-05-10T01:18:18;1.40;;;1.30;;
75744;SDS011;64359;51.366;-0.222;2023-05-10T01:19:23;1.30;;;1.20;;
75744;SDS011;64359;51.366;-0.222;2023-05-10T01:20:27;1.00;;;1.00;;
75744;SDS011;64359;51.366;-0.222;2023-05-10T01:21:42;1.40;;;1.30;;
75744;SDS011;64359;51.366;-0.222;2023-05-10T01:23:12;1.10;;;1.10;;
75744;SDS011;64359;51.366;-0.222;2023-05-10T01:24:38;1.20;;;1.00;;
75744;SDS011;64359;51.366;-0.222;2023-05-10T01:26:07;1.10;;;1.10;;
75744;SDS011;64359;51.366;-0.222;2023-05-10T01:29:49;1.00;;;0.90;;
75744;SDS011;64359;51.366;-0.222;2023-05-10T01:31:16;1.00;;;0.80;;
75744;SDS011;64359;51.366;-0.222;2023-05-10T01:32:26;1.20;;;1.20;;
75744;SDS011;64359;51.366;-0.222;2023-05-10T01:33:34;1.30;;;1.20;;
75744;SDS011;64359;51.366;-0.222;2023-05-10T01:34:41;1.20;;;1.10;;
75744;SDS011;64359;51.366;-0.222;2023-05-10T01:35:51;1.40;;;1.30;;
75744;SDS011;64359;51.366;-0.222;2023-05-10T01:37:04;0.90;;;0.90;;
75744;SDS011;64359;51.366;-0.222;2023-05-10T01:38:13;1.20;;;1.10;;
75744;SDS011;64359;51.366;-0.222;2023-05-10T01:39:20;1.40;;;1.20;;
75744;SDS011;64359;51.366;-0.222;2023-05-10T01:40:32;1.10;;;1.10;;
75744;SDS011;64359;51.366;-0.222;2023-05-10T01:41:42;1.40;;;1.30;;
75744;SDS011;64359;51.366;-0.222;2023-05-10T01:42:51;1.20;;;1.10;;
75744;SDS011;64359;51.366;-0.222;2023-05-10T01:44:00;1.30;;;1.20;;
75744;SDS011;64359;51.366;-0.222;2023-05-10T01:45:16;1.20;;;1.10;;
75744;SDS011;64359;51.366;-0.222;2023-05-10T01:46:24;1.40;;;1.30;;
75744;SDS011;64359;51.366;-0.222;2023-05-10T01:47:31;1.10;;;1.00;;
75744;SDS011;64359;51.366;-0.222;2023-05-10T01:48:38;0.90;;;0.90;;
75744;SDS011;64359;51.366;-0.222;2023-05-10T01:49:49;1.30;;;1.20;;
75744;SDS011;64359;51.366;-0.222;2023-05-10T01:50:54;1.10;;;1.10;;
75744;SDS011;64359;51.366;-0.222;2023-05-10T01:51:59;1.50;;;1.40;;
75744;SDS011;64359;51.366;-0.222;2023-05-10T01:53:07;1.10;;;1.10;;
75744;SDS011;64359;51.366;-0.222;2023-05-10T01:54:11;1.50;;;1.00;;
75744;SDS011;64359;51.366;-0.222;2023-05-10T01:55:18;1.40;;;1.30;;
75744;SDS011;64359;51.366;-0.222;2023-05-10T01:56:22;0.90;;;0.90;;
75744;SDS011;64359;51.366;-0.222;2023-05-10T01:57:28;1.80;;;1.30;;
75744;SDS011;64359;51.366;-0.222;2023-05-10T01:58:35;1.10;;;1.10;;
75744;SDS011;64359;51.366;-0.222;2023-05-10T01:59:41;1.00;;;1.00;;
75744;SDS011;64359;51.366;-0.222;2023-05-10T02:00:47;1.40;;;1.30;;
75744;SDS011;64359;51.366;-0.222;2023-05-10T02:01:50;1.20;;;1.10;;
75744;SDS011;64359;51.366;-0.222;2023-05-10T02:02:55;1.30;;;1.20;;
75744;SDS011;64359;51.366;-0.222;2023-05-10T02:03:58;1.40;;;1.40;;
75744;SDS011;64359;51.366;-0.222;2023-05-10T02:05:01;0.90;;;0.90;;
75744;SDS011;64359;51.366;-0.222;2023-05-10T02:06:05;1.10;;;1.10;;
75744;SDS011;64359;51.366;-0.222;2023-05-10T02:07:10;1.10;;;1.10;;
75744;SDS011;64359;51.366;-0.222;2023-05-10T02:08:14;1.10;;;1.10;;
75744;SDS011;64359;51.366;-0.222;2023-05-10T02:09:19;1.20;;;1.20;;
75744;SDS011;64359;51.366;-0.222;2023-05-10T02:10:22;0.90;;;0.90;;
75744;SDS011;64359;51.366;-0.222;2023-05-10T02:11:25;1.60;;;1.20;;
75744;SDS011;64359;51.366;-0.222;2023-05-10T02:12:29;1.40;;;1.30;;
75744;SDS011;64359;51.366;-0.222;2023-05-10T02:13:32;1.80;;;1.20;;
75744;SDS011;64359;51.366;-0.222;2023-05-10T02:14:38;1.10;;;1.00;;
75744;SDS011;64359;51.366;-0.222;2023-05-10T02:15:42;1.50;;;1.40;;
75744;SDS011;64359;51.366;-0.222;2023-05-10T02:16:48;1.40;;;1.30;;
75744;SDS011;64359;51.366;-0.222;2023-05-10T02:17:55;1.40;;;1.30;;
75744;SDS011;64359;51.366;-0.222;2023-05-10T02:18:58;1.40;;;1.30;;
75744;SDS011;64359;51.366;-0.222;2023-05-10T02:20:03;1.20;;;1.10;;
75744;SDS011;64359;51.366;-0.222;2023-05-10T02:21:08;1.80;;;1.10;;
75744;SDS011;64359;51.366;-0.222;2023-05-10T02:22:12;1.10;;;1.00;;
75744;SDS011;64359;51.366;-0.222;2023-05-10T02:23:17;1.20;;;1.20;;
75744;SDS011;64359;51.366;-0.222;2023-05-10T02:24:21;1.30;;;1.30;;
75744;SDS011;64359;51.366;-0.222;2023-05-10T02:25:25;1.00;;;0.90;;
75744;SDS011;64359;51.366;-0.222;2023-05-10T02:26:28;1.40;;;1.30;;
75744;SDS011;64359;51.366;-0.222;2023-05-10T02:27:32;1.10;;;1.10;;
75744;SDS011;64359;51.366;-0.222;2023-05-10T02:28:36;1.10;;;1.10;;
75744;SDS011;64359;51.366;-0.222;2023-05-10T02:29:40;1.10;;;0.90;;
75744;SDS011;64359;51.366;-0.222;2023-05-10T02:31:45;1.30;;;1.30;;
75744;SDS011;64359;51.366;-0.222;2023-05-10T02:32:48;1.80;;;1.30;;
75744;SDS011;64359;51.366;-0.222;2023-05-10T02:33:51;1.40;;;1.30;;
75744;SDS011;64359;51.366;-0.222;2023-05-10T02:34:54;1.50;;;1.40;;
75744;SDS011;64359;51.366;-0.222;2023-05-10T02:35:58;1.20;;;1.10;;
75744;SDS011;64359;51.366;-0.222;2023-05-10T02:37:02;1.40;;;1.30;;
75744;SDS011;64359;51.366;-0.222;2023-05-10T02:38:04;1.20;;;1.00;;
75744;SDS011;64359;51.366;-0.222;2023-05-10T02:39:09;1.10;;;1.10;;
75744;SDS011;64359;51.366;-0.222;2023-05-10T02:40:14;1.70;;;1.60;;
75744;SDS011;64359;51.366;-0.222;2023-05-10T02:41:18;1.40;;;1.30;;
75744;SDS011;64359;51.366;-0.222;2023-05-10T02:42:23;1.10;;;1.10;;
75744;SDS011;64359;51.366;-0.222;2023-05-10T02:43:28;1.80;;;1.70;;
75744;SDS011;64359;51.366;-0.222;2023-05-10T02:44:33;1.50;;;1.20;;
75744;SDS011;64359;51.366;-0.222;2023-05-10T02:45:37;1.70;;;1.60;;
75744;SDS011;64359;51.366;-0.222;2023-05-10T02:46:41;1.10;;;1.10;;
75744;SDS011;64359;51.366;-0.222;2023-05-10T02:47:44;0.90;;;0.90;;
75744;SDS011;64359;51.366;-0.222;2023-05-10T02:48:46;1.70;;;1.50;;
75744;SDS011;64359;51.366;-0.222;2023-05-10T02:49:48;1.60;;;1.50;;
75744;SDS011;64359;51.366;-0.222;2023-05-10T02:50:51;1.50;;;1.40;;
75744;SDS011;64359;51.366;-0.222;2023-05-10T02:51:56;1.10;;;1.00;;
75744;SDS011;64359;51.366;-0.222;2023-05-10T02:53:03;1.00;;;0.90;;
75744;SDS011;64359;51.366;-0.222;2023-05-10T02:54:11;1.40;;;1.30;;
75744;SDS011;64359;51.366;-0.222;2023-05-10T02:55:19;1.30;;;1.20;;
75744;SDS011;64359;51.366;-0.222;2023-05-10T02:56:28;1.50;;;1.40;;
75744;SDS011;64359;51.366;-0.222;2023-05-10T02:57:35;1.00;;;1.00;;
75744;SDS011;64359;51.366;-0.222;2023-05-10T02:58:42;1.00;;;1.00;;
75744;SDS011;64359;51.366;-0.222;2023-05-10T02:59:45;1.40;;;1.30;;
75744;SDS011;64359;51.366;-0.222;2023-05-10T03:00:47;1.60;;;1.50;;
75744;SDS011;64359;51.366;-0.222;2023-05-10T03:01:49;1.30;;;1.30;;
75744;SDS011;64359;51.366;-0.222;2023-05-10T03:02:52;1.80;;;1.00;;
75744;SDS011;64359;51.366;-0.222;2023-05-10T03:03:54;2.00;;;1.40;;
75744;SDS011;64359;51.366;-0.222;2023-05-10T03:04:56;1.00;;;1.00;;
75744;SDS011;64359;51.366;-0.222;2023-05-10T03:05:59;1.20;;;1.10;;
75744;SDS011;64359;51.366;-0.222;2023-05-10T03:07:01;1.50;;;1.20;;
75744;SDS011;64359;51.366;-0.222;2023-05-10T03:08:04;1.50;;;1.30;;
75744;SDS011;64359;51.366;-0.222;2023-05-10T03:09:07;1.10;;;1.00;;
75744;SDS011;64359;51.366;-0.222;2023-05-10T03:10:11;1.30;;;1.10;;
75744;SDS011;64359;51.366;-0.222;2023-05-10T03:11:20;1.10;;;1.00;;
75744;SDS011;64359;51.366;-0.222;2023-05-10T03:12:37;1.00;;;0.90;;
75744;SDS011;64359;51.366;-0.222;2023-05-10T03:13:49;1.50;;;1.40;;
75744;SDS011;64359;51.366;-0.222;2023-05-10T03:15:06;1.30;;;1.20;;
75744;SDS011;64359;51.366;-0.222;2023-05-10T03:16:15;1.00;;;0.90;;
75744;SDS011;64359;51.366;-0.222;2023-05-10T03:17:23;0.80;;;0.80;;
75744;SDS011;64359;51.366;-0.222;2023-05-10T03:18:33;1.00;;;1.00;;
75744;SDS011;64359;51.366;-0.222;2023-05-10T03:19:45;1.60;;;0.90;;
75744;SDS011;64359;51.366;-0.222;2023-05-10T03:20:55;1.30;;;1.20;;
75744;SDS011;64359;51.366;-0.222;2023-05-10T03:22:03;1.50;;;0.90;;
75744;SDS011;64359;51.366;-0.222;2023-05-10T03:23:12;1.10;;;1.00;;
75744;SDS011;64359;51.366;-0.222;2023-05-10T03:24:24;1.50;;;1.40;;
75744;SDS011;64359;51.366;-0.222;2023-05-10T03:25:28;1.40;;;1.20;;
75744;SDS011;64359;51.366;-0.222;2023-05-10T03:26:32;0.80;;;0.80;;
75744;SDS011;64359;51.366;-0.222;2023-05-10T03:27:36;1.60;;;1.30;;
75744;SDS011;64359;51.366;-0.222;2023-05-10T03:28:42;1.60;;;1.50;;
75744;SDS011;64359;51.366;-0.222;2023-05-10T03:29:45;1.70;;;1.30;;
75744;SDS011;64359;51.366;-0.222;2023-05-10T03:30:48;1.10;;;1.10;;
75744;SDS011;64359;51.366;-0.222;2023-05-10T03:31:53;1.30;;;1.20;;
75744;SDS011;64359;51.366;-0.222;2023-05-10T03:32:55;1.90;;;1.20;;
75744;SDS011;64359;51.366;-0.222;2023-05-10T03:33:58;1.20;;;1.20;;
75744;SDS011;64359;51.366;-0.222;2023-05-10T03:35:00;0.80;;;0.80;;
75744;SDS011;64359;51.366;-0.222;2023-05-10T03:36:07;0.80;;;0.80;;
75744;SDS011;64359;51.366;-0.222;2023-05-10T03:38:11;0.90;;;0.90;;
75744;SDS011;64359;51.366;-0.222;2023-05-10T03:39:14;1.30;;;1.20;;
75744;SDS011;64359;51.366;-0.222;2023-05-10T03:40:16;1.00;;;1.00;;
75744;SDS011;64359;51.366;-0.222;2023-05-10T03:41:18;1.10;;;1.00;;
75744;SDS011;64359;51.366;-0.222;2023-05-10T03:42:21;1.10;;;1.10;;
75744;SDS011;64359;51.366;-0.222;2023-05-10T03:43:23;1.40;;;1.30;;
75744;SDS011;64359;51.366;-0.222;2023-05-10T03:44:25;1.10;;;1.10;;
75744;SDS011;64359;51.366;-0.222;2023-05-10T03:45:28;1.00;;;1.00;;
75744;SDS011;64359;51.366;-0.222;2023-05-10T03:47:32;0.90;;;0.90;;
75744;SDS011;64359;51.366;-0.222;2023-05-10T03:48:35;1.30;;;1.20;;
75744;SDS011;64359;51.366;-0.222;2023-05-10T03:49:37;1.40;;;1.10;;
75744;SDS011;64359;51.366;-0.222;2023-05-10T03:50:39;1.30;;;1.20;;
75744;SDS011;64359;51.366;-0.222;2023-05-10T03:51:41;1.30;;;1.20;;
75744;SDS011;64359;51.366;-0.222;2023-05-10T03:52:44;1.10;;;1.10;;
75744;SDS011;64359;51.366;-0.222;2023-05-10T03:54:48;1.30;;;1.20;;
75744;SDS011;64359;51.366;-0.222;2023-05-10T03:55:50;2.40;;;1.20;;
75744;SDS011;64359;51.366;-0.222;2023-05-10T03:56:53;1.40;;;1.30;;
75744;SDS011;64359;51.366;-0.222;2023-05-10T03:57:55;1.30;;;1.30;;
75744;SDS011;64359;51.366;-0.222;2023-05-10T03:58:57;1.10;;;1.00;;
75744;SDS011;64359;51.366;-0.222;2023-05-10T04:00:00;1.40;;;1.30;;
75744;SDS011;64359;51.366;-0.222;2023-05-10T04:01:03;1.10;;;1.00;;
75744;SDS011;64359;51.366;-0.222;2023-05-10T04:02:05;1.40;;;1.30;;
75744;SDS011;64359;51.366;-0.222;2023-05-10T04:03:08;1.20;;;1.20;;
75744;SDS011;64359;51.366;-0.222;2023-05-10T04:04:10;1.00;;;1.00;;
75744;SDS011;64359;51.366;-0.222;2023-05-10T04:05:12;1.10;;;1.00;;
75744;SDS011;64359;51.366;-0.222;2023-05-10T04:06:15;1.10;;;1.10;;
75744;SDS011;64359;51.366;-0.222;2023-05-10T04:07:17;1.20;;;1.20;;
75744;SDS011;64359;51.366;-0.222;2023-05-10T04:08:19;1.40;;;1.20;;
75744;SDS011;64359;51.366;-0.222;2023-05-10T04:09:21;1.40;;;1.20;;
75744;SDS011;64359;51.366;-0.222;2023-05-10T04:10:24;1.40;;;1.00;;
75744;SDS011;64359;51.366;-0.222;2023-05-10T04:11:26;2.60;;;1.30;;
75744;SDS011;64359;51.366;-0.222;2023-05-10T04:12:28;1.80;;;1.50;;
75744;SDS011;64359;51.366;-0.222;2023-05-10T04:13:31;1.10;;;1.10;;
75744;SDS011;64359;51.366;-0.222;2023-05-10T04:14:33;1.20;;;1.10;;
75744;SDS011;64359;51.366;-0.222;2023-05-10T04:15:35;1.10;;;1.00;;
75744;SDS011;64359;51.366;-0.222;2023-05-10T04:16:38;1.00;;;1.00;;
75744;SDS011;64359;51.366;-0.222;2023-05-10T04:17:40;1.50;;;1.40;;
75744;SDS011;64359;51.366;-0.222;2023-05-10T04:18:42;1.70;;;1.60;;
75744;SDS011;64359;51.366;-0.222;2023-05-10T04:19:44;1.10;;;1.00;;
75744;SDS011;64359;51.366;-0.222;2023-05-10T04:20:46;1.30;;;1.20;;
75744;SDS011;64359;51.366;-0.222;2023-05-10T04:21:49;1.40;;;1.30;;
75744;SDS011;64359;51.366;-0.222;2023-05-10T04:22:51;1.40;;;1.30;;
75744;SDS011;64359;51.366;-0.222;2023-05-10T04:23:53;0.90;;;0.90;;
75744;SDS011;64359;51.366;-0.222;2023-05-10T04:24:55;1.10;;;1.00;;
75744;SDS011;64359;51.366;-0.222;2023-05-10T04:26:01;1.10;;;1.00;;
75744;SDS011;64359;51.366;-0.222;2023-05-10T04:27:03;1.20;;;1.20;;
75744;SDS011;64359;51.366;-0.222;2023-05-10T04:28:05;1.50;;;1.40;;
75744;SDS011;64359;51.366;-0.222;2023-05-10T04:29:07;1.20;;;1.10;;
75744;SDS011;64359;51.366;-0.222;2023-05-10T04:30:10;1.10;;;1.10;;
75744;SDS011;64359;51.366;-0.222;2023-05-10T04:31:13;1.60;;;1.50;;
75744;SDS011;64359;51.366;-0.222;2023-05-10T04:32:15;1.70;;;1.20;;
75744;SDS011;64359;51.366;-0.222;2023-05-10T04:33:18;1.90;;;1.40;;
75744;SDS011;64359;51.366;-0.222;2023-05-10T04:34:20;1.30;;;1.20;;
75744;SDS011;64359;51.366;-0.222;2023-05-10T04:35:23;1.10;;;1.10;;
75744;SDS011;64359;51.366;-0.222;2023-05-10T04:36:25;1.20;;;1.10;;
75744;SDS011;64359;51.366;-0.222;2023-05-10T04:37:28;1.60;;;1.50;;
75744;SDS011;64359;51.366;-0.222;2023-05-10T04:38:30;1.40;;;1.30;;
75744;SDS011;64359;51.366;-0.222;2023-05-10T04:39:32;1.30;;;1.30;;
75744;SDS011;64359;51.366;-0.222;2023-05-10T04:40:35;1.70;;;1.60;;
75744;SDS011;64359;51.366;-0.222;2023-05-10T04:41:38;1.60;;;1.50;;
75744;SDS011;64359;51.366;-0.222;2023-05-10T04:42:40;1.10;;;1.00;;
75744;SDS011;64359;51.366;-0.222;2023-05-10T04:43:42;1.50;;;1.40;;
75744;SDS011;64359;51.366;-0.222;2023-05-10T04:44:44;1.40;;;1.30;;
75744;SDS011;64359;51.366;-0.222;2023-05-10T04:45:47;1.70;;;1.60;;
75744;SDS011;64359;51.366;-0.222;2023-05-10T04:46:50;1.70;;;1.50;;
75744;SDS011;64359;51.366;-0.222;2023-05-10T04:47:53;1.80;;;1.10;;
75744;SDS011;64359;51.366;-0.222;2023-05-10T04:48:55;1.70;;;1.60;;
75744;SDS011;64359;51.366;-0.222;2023-05-10T04:49:57;1.60;;;1.50;;
75744;SDS011;64359;51.366;-0.222;2023-05-10T04:51:00;1.90;;;1.60;;
75744;SDS011;64359;51.366;-0.222;2023-05-10T04:52:04;1.50;;;1.40;;
75744;SDS011;64359;51.366;-0.222;2023-05-10T04:53:07;1.50;;;1.40;;
75744;SDS011;64359;51.366;-0.222;2023-05-10T04:54:09;1.40;;;1.30;;
75744;SDS011;64359;51.366;-0.222;2023-05-10T04:55:11;1.80;;;1.70;;
75744;SDS011;64359;51.366;-0.222;2023-05-10T04:56:14;1.70;;;1.60;;
75744;SDS011;64359;51.366;-0.222;2023-05-10T04:57:17;2.40;;;1.30;;
75744;SDS011;64359;51.366;-0.222;2023-05-10T04:58:19;1.50;;;1.10;;
75744;SDS011;64359;51.366;-0.222;2023-05-10T04:59:22;1.30;;;1.20;;
75744;SDS011;64359;51.366;-0.222;2023-05-10T05:00:24;1.70;;;1.60;;
75744;SDS011;64359;51.366;-0.222;2023-05-10T05:01:26;1.80;;;1.70;;
75744;SDS011;64359;51.366;-0.222;2023-05-10T05:02:28;1.70;;;1.60;;
75744;SDS011;64359;51.366;-0.222;2023-05-10T05:03:31;1.90;;;1.70;;
75744;SDS011;64359;51.366;-0.222;2023-05-10T05:04:34;1.70;;;1.60;;
75744;SDS011;64359;51.366;-0.222;2023-05-10T05:05:36;1.40;;;1.30;;
75744;SDS011;64359;51.366;-0.222;2023-05-10T05:06:38;1.70;;;1.60;;
75744;SDS011;64359;51.366;-0.222;2023-05-10T05:07:41;1.70;;;1.50;;
75744;SDS011;64359;51.366;-0.222;2023-05-10T05:08:43;1.80;;;1.70;;
75744;SDS011;64359;51.366;-0.222;2023-05-10T05:09:45;1.90;;;1.80;;
75744;SDS011;64359;51.366;-0.222;2023-05-10T05:10:48;1.60;;;1.50;;
75744;SDS011;64359;51.366;-0.222;2023-05-10T05:11:51;1.80;;;1.60;;
75744;SDS011;64359;51.366;-0.222;2023-05-10T05:12:53;1.60;;;1.40;;
75744;SDS011;64359;51.366;-0.222;2023-05-10T05:13:56;1.70;;;1.50;;
75744;SDS011;64359;51.366;-0.222;2023-05-10T05:14:59;1.90;;;1.50;;
75744;SDS011;64359;51.366;-0.222;2023-05-10T05:16:02;2.00;;;1.40;;
75744;SDS011;64359;51.366;-0.222;2023-05-10T05:17:05;1.80;;;1.40;;
75744;SDS011;64359;51.366;-0.222;2023-05-10T05:18:07;2.10;;;1.90;;
75744;SDS011;64359;51.366;-0.222;2023-05-10T05:19:10;1.70;;;1.40;;
75744;SDS011;64359;51.366;-0.222;2023-05-10T05:20:12;1.80;;;1.30;;
75744;SDS011;64359;51.366;-0.222;2023-05-10T05:21:15;2.70;;;1.40;;
75744;SDS011;64359;51.366;-0.222;2023-05-10T05:22:18;2.10;;;1.50;;
75744;SDS011;64359;51.366;-0.222;2023-05-10T05:23:27;2.10;;;1.90;;
75744;SDS011;64359;51.366;-0.222;2023-05-10T05:24:32;1.50;;;1.40;;
75744;SDS011;64359;51.366;-0.222;2023-05-10T05:25:38;2.50;;;1.70;;
75744;SDS011;64359;51.366;-0.222;2023-05-10T05:26:40;1.80;;;1.70;;
75744;SDS011;64359;51.366;-0.222;2023-05-10T05:27:42;1.70;;;1.60;;
75744;SDS011;64359;51.366;-0.222;2023-05-10T05:28:45;2.00;;;1.80;;
75744;SDS011;64359;51.366;-0.222;2023-05-10T05:29:49;1.70;;;1.60;;
75744;SDS011;64359;51.366;-0.222;2023-05-10T05:30:51;2.40;;;1.50;;
75744;SDS011;64359;51.366;-0.222;2023-05-10T05:31:54;1.90;;;1.60;;
75744;SDS011;64359;51.366;-0.222;2023-05-10T05:32:57;2.80;;;2.60;;
75744;SDS011;64359;51.366;-0.222;2023-05-10T05:33:59;2.30;;;1.90;;
75744;SDS011;64359;51.366;-0.222;2023-05-10T05:35:01;1.90;;;1.70;;
75744;SDS011;64359;51.366;-0.222;2023-05-10T05:36:05;1.90;;;1.80;;
75744;SDS011;64359;51.366;-0.222;2023-05-10T05:37:08;2.20;;;1.70;;
75744;SDS011;64359;51.366;-0.222;2023-05-10T05:38:15;2.70;;;2.00;;
75744;SDS011;64359;51.366;-0.222;2023-05-10T05:39:18;2.10;;;1.90;;
75744;SDS011;64359;51.366;-0.222;2023-05-10T05:40:20;3.00;;;2.00;;
75744;SDS011;64359;51.366;-0.222;2023-05-10T05:41:22;3.10;;;2.20;;
75744;SDS011;64359;51.366;-0.222;2023-05-10T05:42:25;2.60;;;1.90;;
75744;SDS011;64359;51.366;-0.222;2023-05-10T05:43:27;3.70;;;1.80;;
75744;SDS011;64359;51.366;-0.222;2023-05-10T05:44:29;2.30;;;1.60;;
75744;SDS011;64359;51.366;-0.222;2023-05-10T05:45:32;5.60;;;2.30;;
75744;SDS011;64359;51.366;-0.222;2023-05-10T05:46:34;2.00;;;1.70;;
75744;SDS011;64359;51.366;-0.222;2023-05-10T05:47:37;4.00;;;1.60;;
75744;SDS011;64359;51.366;-0.222;2023-05-10T05:48:39;4.00;;;2.00;;
75744;SDS011;64359;51.366;-0.222;2023-05-10T05:49:42;3.40;;;1.60;;
75744;SDS011;64359;51.366;-0.222;2023-05-10T05:50:46;3.00;;;1.70;;
75744;SDS011;64359;51.366;-0.222;2023-05-10T05:51:48;2.30;;;1.90;;
75744;SDS011;64359;51.366;-0.222;2023-05-10T05:52:51;2.20;;;1.50;;
75744;SDS011;64359;51.366;-0.222;2023-05-10T05:53:54;2.40;;;1.90;;
75744;SDS011;64359;51.366;-0.222;2023-05-10T05:54:56;1.80;;;1.70;;
75744;SDS011;64359;51.366;-0.222;2023-05-10T05:55:59;6.00;;;2.00;;
75744;SDS011;64359;51.366;-0.222;2023-05-10T05:57:01;2.80;;;2.10;;
75744;SDS011;64359;51.366;-0.222;2023-05-10T05:58:04;3.90;;;1.80;;
75744;SDS011;64359;51.366;-0.222;2023-05-10T05:59:06;4.60;;;2.00;;
75744;SDS011;64359;51.366;-0.222;2023-05-10T06:00:09;8.30;;;1.80;;
75744;SDS011;64359;51.366;-0.222;2023-05-10T06:01:12;7.60;;;2.50;;
75744;SDS011;64359;51.366;-0.222;2023-05-10T06:02:15;5.80;;;2.80;;
75744;SDS011;64359;51.366;-0.222;2023-05-10T06:03:17;6.00;;;2.20;;
75744;SDS011;64359;51.366;-0.222;2023-05-10T06:04:20;6.50;;;1.90;;
75744;SDS011;64359;51.366;-0.222;2023-05-10T06:05:22;5.80;;;1.80;;
75744;SDS011;64359;51.366;-0.222;2023-05-10T06:06:24;5.20;;;1.90;;
75744;SDS011;64359;51.366;-0.222;2023-05-10T06:07:27;2.80;;;1.90;;
75744;SDS011;64359;51.366;-0.222;2023-05-10T06:08:30;1.90;;;1.70;;
75744;SDS011;64359;51.366;-0.222;2023-05-10T06:09:32;3.50;;;1.70;;
75744;SDS011;64359;51.366;-0.222;2023-05-10T06:10:35;3.80;;;2.30;;
75744;SDS011;64359;51.366;-0.222;2023-05-10T06:11:37;4.60;;;1.80;;
75744;SDS011;64359;51.366;-0.222;2023-05-10T06:12:40;7.60;;;2.70;;
75744;SDS011;64359;51.366;-0.222;2023-05-10T06:13:42;4.90;;;2.40;;
75744;SDS011;64359;51.366;-0.222;2023-05-10T06:14:45;9.50;;;2.10;;
75744;SDS011;64359;51.366;-0.222;2023-05-10T06:15:47;5.20;;;2.30;;
75744;SDS011;64359;51.366;-0.222;2023-05-10T06:16:50;8.00;;;2.00;;
75744;SDS011;64359;51.366;-0.222;2023-05-10T06:17:52;4.90;;;3.00;;
75744;SDS011;64359;51.366;-0.222;2023-05-10T06:18:54;8.20;;;2.60;;
75744;SDS011;64359;51.366;-0.222;2023-05-10T06:19:57;6.10;;;2.60;;
75744;SDS011;64359;51.366;-0.222;2023-05-10T06:20:59;4.90;;;2.10;;
75744;SDS011;64359;51.366;-0.222;2023-05-10T06:22:01;9.30;;;2.50;;
75744;SDS011;64359;51.366;-0.222;2023-05-10T06:23:03;5.60;;;1.90;;
75744;SDS011;64359;51.366;-0.222;2023-05-10T06:24:06;5.90;;;2.30;;
75744;SDS011;64359;51.366;-0.222;2023-05-10T06:25:09;9.10;;;2.60;;
75744;SDS011;64359;51.366;-0.222;2023-05-10T06:26:12;4.90;;;2.30;;